sensor_id;sensor_type;location;lat;lon;timestamp;P1;durP1;ratioP1;P2;durP2;ratioP2
46415;SDS011;32620;51.704;7.822;2023-09-18T00:01:20;10.82;;;7.82;;
46415;SDS011;32620;51.704;7.822;2023-09-18T00:03:46;13.48;;;8.80;;
46415;SDS011;32620;51.704;7.822;2023-09-18T00:06:11;12.27;;;8.90;;
46415;SDS011;32620;51.704;7.822;2023-09-18T00:08:38;13.07;;;8.77;;
46415;SDS011;32620;51.704;7.822;2023-09-18T00:11:04;15.38;;;9.05;;
46415;SDS011;32620;51.704;7.822;2023-09-18T00:13:30;13.95;;;9.20;;
46415;SDS011;32620;51.704;7.822;2023-09-18T00:15:55;11.95;;;8.43;;
46415;SDS011;32620;51.704;7.822;2023-09-18T00:18:21;12.18;;;8.98;;
46415;SDS011;32620;51.704;7.822;2023-09-18T00:20:46;14.13;;;9.00;;
46415;SDS011;32620;51.704;7.822;2023-09-18T00:23:13;11.65;;;8.48;;
46415;SDS011;32620;51.704;7.822;2023-09-18T00:25:40;12.10;;;8.87;;
46415;SDS011;32620;51.704;7.822;2023-09-18T00:28:07;13.73;;;8.90;;
46415;SDS011;32620;51.704;7.822;2023-09-18T00:30:33;16.23;;;8.90;;
46415;SDS011;32620;51.704;7.822;2023-09-18T00:32:59;12.68;;;8.98;;
46415;SDS011;32620;51.704;7.822;2023-09-18T00:35:24;14.20;;;8.90;;
46415;SDS011;32620;51.704;7.822;2023-09-18T00:37:50;14.93;;;8.88;;
46415;SDS011;32620;51.704;7.822;2023-09-18T00:40:16;13.80;;;9.07;;
46415;SDS011;32620;51.704;7.822;2023-09-18T00:42:41;12.82;;;8.43;;
46415;SDS011;32620;51.704;7.822;2023-09-18T00:45:07;13.23;;;9.38;;
46415;SDS011;32620;51.704;7.822;2023-09-18T00:47:34;14.93;;;9.18;;
46415;SDS011;32620;51.704;7.822;2023-09-18T00:50:01;14.10;;;9.25;;
46415;SDS011;32620;51.704;7.822;2023-09-18T00:52:28;14.95;;;9.20;;
46415;SDS011;32620;51.704;7.822;2023-09-18T00:54:54;10.85;;;7.97;;
46415;SDS011;32620;51.704;7.822;2023-09-18T00:57:20;10.82;;;8.57;;
46415;SDS011;32620;51.704;7.822;2023-09-18T00:59:46;10.98;;;8.20;;
46415;SDS011;32620;51.704;7.822;2023-09-18T01:02:12;12.38;;;8.73;;
46415;SDS011;32620;51.704;7.822;2023-09-18T01:04:38;11.00;;;9.18;;
46415;SDS011;32620;51.704;7.822;2023-09-18T01:07:09;10.52;;;9.00;;
46415;SDS011;32620;51.704;7.822;2023-09-18T01:09:34;13.57;;;8.55;;
46415;SDS011;32620;51.704;7.822;2023-09-18T01:12:08;17.60;;;10.18;;
46415;SDS011;32620;51.704;7.822;2023-09-18T01:14:42;15.77;;;8.85;;
46415;SDS011;32620;51.704;7.822;2023-09-18T01:17:24;11.85;;;8.65;;
46415;SDS011;32620;51.704;7.822;2023-09-18T01:19:50;14.73;;;9.75;;
46415;SDS011;32620;51.704;7.822;2023-09-18T01:22:17;15.68;;;9.70;;
46415;SDS011;32620;51.704;7.822;2023-09-18T01:24:44;17.90;;;9.25;;
46415;SDS011;32620;51.704;7.822;2023-09-18T01:27:13;15.45;;;9.20;;
46415;SDS011;32620;51.704;7.822;2023-09-18T01:29:43;16.45;;;9.70;;
46415;SDS011;32620;51.704;7.822;2023-09-18T01:32:09;14.13;;;9.90;;
46415;SDS011;32620;51.704;7.822;2023-09-18T01:34:36;16.08;;;9.95;;
46415;SDS011;32620;51.704;7.822;2023-09-18T01:37:06;14.05;;;9.57;;
46415;SDS011;32620;51.704;7.822;2023-09-18T01:39:34;13.45;;;8.80;;
46415;SDS011;32620;51.704;7.822;2023-09-18T01:42:01;16.70;;;9.18;;
46415;SDS011;32620;51.704;7.822;2023-09-18T01:44:32;11.18;;;9.50;;
46415;SDS011;32620;51.704;7.822;2023-09-18T01:46:58;15.90;;;9.63;;
46415;SDS011;32620;51.704;7.822;2023-09-18T01:49:27;16.08;;;9.93;;
46415;SDS011;32620;51.704;7.822;2023-09-18T01:51:54;11.27;;;8.93;;
46415;SDS011;32620;51.704;7.822;2023-09-18T01:54:20;14.65;;;10.10;;
46415;SDS011;32620;51.704;7.822;2023-09-18T01:56:46;16.05;;;10.40;;
46415;SDS011;32620;51.704;7.822;2023-09-18T01:59:11;16.42;;;10.88;;
46415;SDS011;32620;51.704;7.822;2023-09-18T02:01:37;16.35;;;10.32;;
46415;SDS011;32620;51.704;7.822;2023-09-18T02:04:03;12.20;;;10.23;;
46415;SDS011;32620;51.704;7.822;2023-09-18T02:06:29;19.17;;;10.05;;
46415;SDS011;32620;51.704;7.822;2023-09-18T02:08:55;14.40;;;9.65;;
46415;SDS011;32620;51.704;7.822;2023-09-18T02:11:20;14.75;;;9.93;;
46415;SDS011;32620;51.704;7.822;2023-09-18T02:13:46;14.05;;;9.82;;
46415;SDS011;32620;51.704;7.822;2023-09-18T02:16:11;17.58;;;10.07;;
46415;SDS011;32620;51.704;7.822;2023-09-18T02:18:37;16.13;;;10.80;;
46415;SDS011;32620;51.704;7.822;2023-09-18T02:21:02;15.48;;;9.93;;
46415;SDS011;32620;51.704;7.822;2023-09-18T02:23:28;14.70;;;9.70;;
46415;SDS011;32620;51.704;7.822;2023-09-18T02:25:55;11.32;;;9.27;;
46415;SDS011;32620;51.704;7.822;2023-09-18T02:28:22;15.18;;;9.82;;
46415;SDS011;32620;51.704;7.822;2023-09-18T02:30:47;10.80;;;9.65;;
46415;SDS011;32620;51.704;7.822;2023-09-18T02:33:13;16.05;;;10.02;;
46415;SDS011;32620;51.704;7.822;2023-09-18T02:35:40;17.88;;;10.50;;
46415;SDS011;32620;51.704;7.822;2023-09-18T02:38:05;15.18;;;9.68;;
46415;SDS011;32620;51.704;7.822;2023-09-18T02:40:31;14.15;;;10.25;;
46415;SDS011;32620;51.704;7.822;2023-09-18T02:42:56;15.30;;;9.43;;
46415;SDS011;32620;51.704;7.822;2023-09-18T02:45:22;14.50;;;10.15;;
46415;SDS011;32620;51.704;7.822;2023-09-18T02:47:48;17.58;;;10.07;;
46415;SDS011;32620;51.704;7.822;2023-09-18T02:50:13;17.52;;;10.13;;
46415;SDS011;32620;51.704;7.822;2023-09-18T02:52:39;14.57;;;10.00;;
46415;SDS011;32620;51.704;7.822;2023-09-18T02:55:04;18.23;;;10.00;;
46415;SDS011;32620;51.704;7.822;2023-09-18T02:57:30;15.65;;;9.85;;
46415;SDS011;32620;51.704;7.822;2023-09-18T02:59:55;13.50;;;8.95;;
46415;SDS011;32620;51.704;7.822;2023-09-18T03:02:21;14.05;;;10.10;;
46415;SDS011;32620;51.704;7.822;2023-09-18T03:04:46;13.68;;;9.25;;
46415;SDS011;32620;51.704;7.822;2023-09-18T03:07:13;18.73;;;8.88;;
46415;SDS011;32620;51.704;7.822;2023-09-18T03:09:38;13.27;;;8.80;;
46415;SDS011;32620;51.704;7.822;2023-09-18T03:12:04;13.65;;;9.30;;
46415;SDS011;32620;51.704;7.822;2023-09-18T03:14:30;13.65;;;9.35;;
46415;SDS011;32620;51.704;7.822;2023-09-18T03:16:55;17.98;;;9.20;;
46415;SDS011;32620;51.704;7.822;2023-09-18T03:19:21;12.70;;;8.85;;
46415;SDS011;32620;51.704;7.822;2023-09-18T03:21:47;18.33;;;9.25;;
46415;SDS011;32620;51.704;7.822;2023-09-18T03:24:13;13.73;;;8.93;;
46415;SDS011;32620;51.704;7.822;2023-09-18T03:26:38;10.75;;;8.50;;
46415;SDS011;32620;51.704;7.822;2023-09-18T03:29:04;15.00;;;9.23;;
46415;SDS011;32620;51.704;7.822;2023-09-18T03:31:29;17.83;;;9.32;;
46415;SDS011;32620;51.704;7.822;2023-09-18T03:33:55;11.25;;;7.80;;
46415;SDS011;32620;51.704;7.822;2023-09-18T03:36:21;12.18;;;8.75;;
46415;SDS011;32620;51.704;7.822;2023-09-18T03:38:49;14.65;;;9.30;;
46415;SDS011;32620;51.704;7.822;2023-09-18T03:41:14;15.85;;;8.73;;
46415;SDS011;32620;51.704;7.822;2023-09-18T03:43:40;12.43;;;8.77;;
46415;SDS011;32620;51.704;7.822;2023-09-18T03:46:05;14.80;;;8.27;;
46415;SDS011;32620;51.704;7.822;2023-09-18T03:48:32;14.75;;;8.60;;
46415;SDS011;32620;51.704;7.822;2023-09-18T03:51:05;13.75;;;8.73;;
46415;SDS011;32620;51.704;7.822;2023-09-18T03:53:34;12.32;;;8.07;;
46415;SDS011;32620;51.704;7.822;2023-09-18T03:56:00;16.50;;;8.07;;
46415;SDS011;32620;51.704;7.822;2023-09-18T03:58:26;14.30;;;8.02;;
46415;SDS011;32620;51.704;7.822;2023-09-18T04:00:52;11.10;;;7.65;;
46415;SDS011;32620;51.704;7.822;2023-09-18T04:03:18;12.18;;;8.05;;
46415;SDS011;32620;51.704;7.822;2023-09-18T04:05:43;11.13;;;7.22;;
46415;SDS011;32620;51.704;7.822;2023-09-18T04:08:09;13.07;;;7.78;;
46415;SDS011;32620;51.704;7.822;2023-09-18T04:10:36;13.30;;;7.82;;
46415;SDS011;32620;51.704;7.822;2023-09-18T04:13:01;11.85;;;6.70;;
46415;SDS011;32620;51.704;7.822;2023-09-18T04:15:27;8.20;;;6.28;;
46415;SDS011;32620;51.704;7.822;2023-09-18T04:17:55;11.57;;;6.45;;
46415;SDS011;32620;51.704;7.822;2023-09-18T04:20:21;10.95;;;6.30;;
46415;SDS011;32620;51.704;7.822;2023-09-18T04:22:47;10.48;;;5.53;;
46415;SDS011;32620;51.704;7.822;2023-09-18T04:25:49;13.15;;;6.35;;
46415;SDS011;32620;51.704;7.822;2023-09-18T04:28:16;10.82;;;5.85;;
46415;SDS011;32620;51.704;7.822;2023-09-18T04:30:45;12.73;;;5.53;;
46415;SDS011;32620;51.704;7.822;2023-09-18T04:33:12;9.35;;;6.05;;
46415;SDS011;32620;51.704;7.822;2023-09-18T04:35:38;9.93;;;5.95;;
46415;SDS011;32620;51.704;7.822;2023-09-18T04:38:05;13.95;;;5.60;;
46415;SDS011;32620;51.704;7.822;2023-09-18T04:40:32;9.98;;;5.50;;
46415;SDS011;32620;51.704;7.822;2023-09-18T04:42:58;11.00;;;4.93;;
46415;SDS011;32620;51.704;7.822;2023-09-18T04:45:24;15.00;;;6.15;;
46415;SDS011;32620;51.704;7.822;2023-09-18T04:47:50;13.27;;;5.28;;
46415;SDS011;32620;51.704;7.822;2023-09-18T04:50:16;12.40;;;5.53;;
46415;SDS011;32620;51.704;7.822;2023-09-18T04:52:42;11.35;;;5.38;;
46415;SDS011;32620;51.704;7.822;2023-09-18T04:55:08;11.93;;;5.13;;
46415;SDS011;32620;51.704;7.822;2023-09-18T04:57:34;10.05;;;4.53;;
46415;SDS011;32620;51.704;7.822;2023-09-18T05:00:00;11.23;;;4.82;;
46415;SDS011;32620;51.704;7.822;2023-09-18T05:02:26;11.27;;;4.72;;
46415;SDS011;32620;51.704;7.822;2023-09-18T05:04:52;13.73;;;5.47;;
46415;SDS011;32620;51.704;7.822;2023-09-18T05:07:17;8.77;;;4.70;;
46415;SDS011;32620;51.704;7.822;2023-09-18T05:09:43;8.20;;;5.00;;
46415;SDS011;32620;51.704;7.822;2023-09-18T05:12:09;12.75;;;4.72;;
46415;SDS011;32620;51.704;7.822;2023-09-18T05:14:39;10.38;;;4.95;;
46415;SDS011;32620;51.704;7.822;2023-09-18T05:17:05;14.05;;;4.55;;
46415;SDS011;32620;51.704;7.822;2023-09-18T05:19:31;7.05;;;4.20;;
46415;SDS011;32620;51.704;7.822;2023-09-18T05:21:57;7.85;;;4.90;;
46415;SDS011;32620;51.704;7.822;2023-09-18T05:24:22;12.50;;;4.95;;
46415;SDS011;32620;51.704;7.822;2023-09-18T05:26:52;11.43;;;4.22;;
46415;SDS011;32620;51.704;7.822;2023-09-18T05:29:18;9.60;;;4.43;;
46415;SDS011;32620;51.704;7.822;2023-09-18T05:31:44;17.40;;;4.65;;
46415;SDS011;32620;51.704;7.822;2023-09-18T05:34:10;10.40;;;5.10;;
46415;SDS011;32620;51.704;7.822;2023-09-18T05:36:36;14.18;;;4.47;;
46415;SDS011;32620;51.704;7.822;2023-09-18T05:39:02;15.10;;;4.53;;
46415;SDS011;32620;51.704;7.822;2023-09-18T05:41:28;16.02;;;5.47;;
46415;SDS011;32620;51.704;7.822;2023-09-18T05:43:54;16.77;;;4.63;;
46415;SDS011;32620;51.704;7.822;2023-09-18T05:46:20;10.85;;;4.55;;
46415;SDS011;32620;51.704;7.822;2023-09-18T05:48:46;18.05;;;5.07;;
46415;SDS011;32620;51.704;7.822;2023-09-18T05:51:11;15.85;;;4.30;;
46415;SDS011;32620;51.704;7.822;2023-09-18T05:53:37;16.02;;;4.68;;
46415;SDS011;32620;51.704;7.822;2023-09-18T05:56:03;18.65;;;4.57;;
46415;SDS011;32620;51.704;7.822;2023-09-18T05:58:32;11.25;;;4.30;;
46415;SDS011;32620;51.704;7.822;2023-09-18T06:00:59;11.45;;;3.90;;
46415;SDS011;32620;51.704;7.822;2023-09-18T06:03:25;18.33;;;4.72;;
46415;SDS011;32620;51.704;7.822;2023-09-18T06:05:52;15.73;;;3.90;;
46415;SDS011;32620;51.704;7.822;2023-09-18T06:08:17;12.00;;;4.15;;
46415;SDS011;32620;51.704;7.822;2023-09-18T06:10:44;14.32;;;4.53;;
46415;SDS011;32620;51.704;7.822;2023-09-18T06:13:10;10.95;;;3.95;;
46415;SDS011;32620;51.704;7.822;2023-09-18T06:15:35;19.75;;;4.90;;
46415;SDS011;32620;51.704;7.822;2023-09-18T06:18:01;14.13;;;3.78;;
46415;SDS011;32620;51.704;7.822;2023-09-18T06:20:28;19.77;;;4.30;;
46415;SDS011;32620;51.704;7.822;2023-09-18T06:22:54;14.88;;;4.10;;
46415;SDS011;32620;51.704;7.822;2023-09-18T06:25:19;10.60;;;4.03;;
46415;SDS011;32620;51.704;7.822;2023-09-18T06:27:45;16.02;;;4.38;;
46415;SDS011;32620;51.704;7.822;2023-09-18T06:30:11;9.82;;;4.20;;
46415;SDS011;32620;51.704;7.822;2023-09-18T06:32:37;13.30;;;4.03;;
46415;SDS011;32620;51.704;7.822;2023-09-18T06:35:03;22.40;;;3.80;;
46415;SDS011;32620;51.704;7.822;2023-09-18T06:37:29;16.77;;;3.90;;
46415;SDS011;32620;51.704;7.822;2023-09-18T06:39:54;16.33;;;4.25;;
46415;SDS011;32620;51.704;7.822;2023-09-18T06:42:21;12.30;;;3.70;;
46415;SDS011;32620;51.704;7.822;2023-09-18T06:44:47;11.85;;;3.83;;
46415;SDS011;32620;51.704;7.822;2023-09-18T06:47:13;10.38;;;3.50;;
46415;SDS011;32620;51.704;7.822;2023-09-18T06:49:39;16.05;;;3.40;;
46415;SDS011;32620;51.704;7.822;2023-09-18T06:52:06;11.70;;;3.80;;
46415;SDS011;32620;51.704;7.822;2023-09-18T06:54:32;12.90;;;3.67;;
46415;SDS011;32620;51.704;7.822;2023-09-18T06:56:58;12.13;;;3.60;;
46415;SDS011;32620;51.704;7.822;2023-09-18T06:59:23;12.57;;;4.00;;
46415;SDS011;32620;51.704;7.822;2023-09-18T07:01:49;9.48;;;3.97;;
46415;SDS011;32620;51.704;7.822;2023-09-18T07:04:15;14.35;;;3.67;;
46415;SDS011;32620;51.704;7.822;2023-09-18T07:06:40;10.50;;;3.58;;
46415;SDS011;32620;51.704;7.822;2023-09-18T07:09:06;9.02;;;3.55;;
46415;SDS011;32620;51.704;7.822;2023-09-18T07:11:32;11.02;;;3.55;;
46415;SDS011;32620;51.704;7.822;2023-09-18T07:13:58;7.47;;;3.28;;
46415;SDS011;32620;51.704;7.822;2023-09-18T07:16:24;12.20;;;3.65;;
46415;SDS011;32620;51.704;7.822;2023-09-18T07:18:50;11.30;;;3.70;;
46415;SDS011;32620;51.704;7.822;2023-09-18T07:21:15;12.43;;;3.55;;
46415;SDS011;32620;51.704;7.822;2023-09-18T07:23:41;12.95;;;3.72;;
46415;SDS011;32620;51.704;7.822;2023-09-18T07:26:06;11.27;;;3.42;;
46415;SDS011;32620;51.704;7.822;2023-09-18T07:28:32;7.38;;;3.75;;
46415;SDS011;32620;51.704;7.822;2023-09-18T07:31:04;9.57;;;3.30;;
46415;SDS011;32620;51.704;7.822;2023-09-18T07:33:31;10.40;;;3.30;;
46415;SDS011;32620;51.704;7.822;2023-09-18T07:35:57;7.47;;;3.33;;
46415;SDS011;32620;51.704;7.822;2023-09-18T07:38:22;13.98;;;3.90;;
46415;SDS011;32620;51.704;7.822;2023-09-18T07:40:48;10.07;;;3.20;;
46415;SDS011;32620;51.704;7.822;2023-09-18T07:43:14;8.52;;;3.33;;
46415;SDS011;32620;51.704;7.822;2023-09-18T07:45:39;8.02;;;3.40;;
46415;SDS011;32620;51.704;7.822;2023-09-18T07:48:06;10.93;;;3.08;;
46415;SDS011;32620;51.704;7.822;2023-09-18T07:50:32;9.77;;;3.00;;
46415;SDS011;32620;51.704;7.822;2023-09-18T07:52:58;7.00;;;2.85;;
46415;SDS011;32620;51.704;7.822;2023-09-18T07:55:24;14.63;;;3.40;;
46415;SDS011;32620;51.704;7.822;2023-09-18T07:57:51;7.60;;;3.10;;
46415;SDS011;32620;51.704;7.822;2023-09-18T08:00:17;9.93;;;3.05;;
46415;SDS011;32620;51.704;7.822;2023-09-18T08:02:43;9.98;;;3.35;;
46415;SDS011;32620;51.704;7.822;2023-09-18T08:05:08;8.88;;;3.05;;
46415;SDS011;32620;51.704;7.822;2023-09-18T08:07:35;13.30;;;3.28;;
46415;SDS011;32620;51.704;7.822;2023-09-18T08:10:02;11.60;;;3.78;;
46415;SDS011;32620;51.704;7.822;2023-09-18T08:12:31;8.93;;;3.35;;
46415;SDS011;32620;51.704;7.822;2023-09-18T08:14:57;9.15;;;3.60;;
46415;SDS011;32620;51.704;7.822;2023-09-18T08:17:23;11.10;;;3.08;;
46415;SDS011;32620;51.704;7.822;2023-09-18T08:19:50;8.70;;;3.05;;
46415;SDS011;32620;51.704;7.822;2023-09-18T08:22:17;10.40;;;3.25;;
46415;SDS011;32620;51.704;7.822;2023-09-18T08:24:44;8.80;;;3.30;;
46415;SDS011;32620;51.704;7.822;2023-09-18T08:27:10;10.68;;;3.03;;
46415;SDS011;32620;51.704;7.822;2023-09-18T08:29:37;8.80;;;3.13;;
46415;SDS011;32620;51.704;7.822;2023-09-18T08:32:02;9.48;;;2.80;;
46415;SDS011;32620;51.704;7.822;2023-09-18T08:34:28;7.53;;;2.63;;
46415;SDS011;32620;51.704;7.822;2023-09-18T08:36:53;7.18;;;3.00;;
46415;SDS011;32620;51.704;7.822;2023-09-18T08:39:19;11.65;;;2.95;;
46415;SDS011;32620;51.704;7.822;2023-09-18T08:41:45;7.38;;;2.97;;
46415;SDS011;32620;51.704;7.822;2023-09-18T08:44:15;4.80;;;2.22;;
46415;SDS011;32620;51.704;7.822;2023-09-18T08:46:42;8.68;;;2.65;;
46415;SDS011;32620;51.704;7.822;2023-09-18T08:49:09;11.13;;;3.00;;
46415;SDS011;32620;51.704;7.822;2023-09-18T08:51:36;9.10;;;2.92;;
46415;SDS011;32620;51.704;7.822;2023-09-18T08:54:04;15.40;;;7.47;;
46415;SDS011;32620;51.704;7.822;2023-09-18T08:56:31;7.22;;;2.42;;
46415;SDS011;32620;51.704;7.822;2023-09-18T08:58:59;12.15;;;3.00;;
46415;SDS011;32620;51.704;7.822;2023-09-18T09:01:24;8.45;;;2.90;;
46415;SDS011;32620;51.704;7.822;2023-09-18T09:03:50;8.25;;;3.35;;
46415;SDS011;32620;51.704;7.822;2023-09-18T09:06:16;9.23;;;2.90;;
46415;SDS011;32620;51.704;7.822;2023-09-18T09:08:42;6.03;;;2.92;;
46415;SDS011;32620;51.704;7.822;2023-09-18T09:11:07;8.13;;;3.10;;
46415;SDS011;32620;51.704;7.822;2023-09-18T09:13:33;5.15;;;2.40;;
46415;SDS011;32620;51.704;7.822;2023-09-18T09:15:59;10.13;;;2.60;;
46415;SDS011;32620;51.704;7.822;2023-09-18T09:18:27;10.77;;;3.53;;
46415;SDS011;32620;51.704;7.822;2023-09-18T09:20:56;12.02;;;2.90;;
46415;SDS011;32620;51.704;7.822;2023-09-18T09:23:26;12.50;;;3.40;;
46415;SDS011;32620;51.704;7.822;2023-09-18T09:25:52;9.27;;;2.80;;
46415;SDS011;32620;51.704;7.822;2023-09-18T09:28:34;8.55;;;3.17;;
46415;SDS011;32620;51.704;7.822;2023-09-18T09:31:00;6.88;;;2.75;;
46415;SDS011;32620;51.704;7.822;2023-09-18T09:33:27;6.82;;;2.72;;
46415;SDS011;32620;51.704;7.822;2023-09-18T09:35:54;9.35;;;2.67;;
46415;SDS011;32620;51.704;7.822;2023-09-18T09:38:22;6.68;;;2.35;;
46415;SDS011;32620;51.704;7.822;2023-09-18T09:40:56;6.53;;;2.70;;
46415;SDS011;32620;51.704;7.822;2023-09-18T09:43:22;5.35;;;2.40;;
46415;SDS011;32620;51.704;7.822;2023-09-18T09:45:47;4.97;;;2.53;;
46415;SDS011;32620;51.704;7.822;2023-09-18T09:48:13;6.35;;;2.70;;
46415;SDS011;32620;51.704;7.822;2023-09-18T09:50:47;7.43;;;2.63;;
46415;SDS011;32620;51.704;7.822;2023-09-18T09:53:13;3.72;;;2.22;;
46415;SDS011;32620;51.704;7.822;2023-09-18T09:55:39;5.78;;;2.28;;
46415;SDS011;32620;51.704;7.822;2023-09-18T09:58:07;7.60;;;2.30;;
46415;SDS011;32620;51.704;7.822;2023-09-18T10:00:35;5.25;;;2.47;;
46415;SDS011;32620;51.704;7.822;2023-09-18T10:03:10;13.82;;;2.22;;
46415;SDS011;32620;51.704;7.822;2023-09-18T10:05:39;8.30;;;2.47;;
46415;SDS011;32620;51.704;7.822;2023-09-18T10:08:08;5.97;;;2.38;;
46415;SDS011;32620;51.704;7.822;2023-09-18T10:10:39;4.75;;;2.10;;
46415;SDS011;32620;51.704;7.822;2023-09-18T10:13:12;6.00;;;2.55;;
46415;SDS011;32620;51.704;7.822;2023-09-18T10:15:42;6.88;;;2.20;;
46415;SDS011;32620;51.704;7.822;2023-09-18T10:18:11;5.93;;;3.05;;
46415;SDS011;32620;51.704;7.822;2023-09-18T10:20:42;5.22;;;2.63;;
46415;SDS011;32620;51.704;7.822;2023-09-18T10:23:12;7.47;;;2.15;;
46415;SDS011;32620;51.704;7.822;2023-09-18T10:25:48;6.10;;;2.38;;
46415;SDS011;32620;51.704;7.822;2023-09-18T10:28:19;7.00;;;2.17;;
46415;SDS011;32620;51.704;7.822;2023-09-18T10:30:47;2.45;;;2.13;;
46415;SDS011;32620;51.704;7.822;2023-09-18T10:33:16;4.35;;;1.90;;
46415;SDS011;32620;51.704;7.822;2023-09-18T10:35:42;8.35;;;2.10;;
46415;SDS011;32620;51.704;7.822;2023-09-18T10:38:08;6.35;;;2.00;;
46415;SDS011;32620;51.704;7.822;2023-09-18T10:40:35;7.80;;;2.17;;
46415;SDS011;32620;51.704;7.822;2023-09-18T10:43:02;4.68;;;1.90;;
46415;SDS011;32620;51.704;7.822;2023-09-18T10:45:34;5.72;;;2.22;;
46415;SDS011;32620;51.704;7.822;2023-09-18T10:48:00;2.80;;;2.08;;
46415;SDS011;32620;51.704;7.822;2023-09-18T10:50:27;5.72;;;1.63;;
46415;SDS011;32620;51.704;7.822;2023-09-18T10:52:57;2.65;;;1.70;;
46415;SDS011;32620;51.704;7.822;2023-09-18T10:55:23;4.93;;;1.90;;
46415;SDS011;32620;51.704;7.822;2023-09-18T10:57:51;3.78;;;2.30;;
46415;SDS011;32620;51.704;7.822;2023-09-18T11:00:21;4.43;;;1.75;;
46415;SDS011;32620;51.704;7.822;2023-09-18T11:02:50;3.78;;;1.77;;
46415;SDS011;32620;51.704;7.822;2023-09-18T11:05:32;4.88;;;1.95;;
46415;SDS011;32620;51.704;7.822;2023-09-18T11:08:50;3.13;;;1.88;;
46415;SDS011;32620;51.704;7.822;2023-09-18T11:10:55;5.95;;;2.10;;
46415;SDS011;32620;51.704;7.822;2023-09-18T11:13:28;6.60;;;2.30;;
46415;SDS011;32620;51.704;7.822;2023-09-18T11:15:58;4.32;;;1.95;;
46415;SDS011;32620;51.704;7.822;2023-09-18T11:18:45;5.38;;;1.73;;
46415;SDS011;32620;51.704;7.822;2023-09-18T11:21:15;5.18;;;2.08;;
46415;SDS011;32620;51.704;7.822;2023-09-18T11:23:42;3.97;;;2.10;;
46415;SDS011;32620;51.704;7.822;2023-09-18T11:26:09;4.90;;;2.17;;
46415;SDS011;32620;51.704;7.822;2023-09-18T11:28:35;3.88;;;1.88;;
46415;SDS011;32620;51.704;7.822;2023-09-18T11:31:02;4.60;;;1.80;;
46415;SDS011;32620;51.704;7.822;2023-09-18T11:33:45;5.45;;;2.00;;
46415;SDS011;32620;51.704;7.822;2023-09-18T11:36:13;4.35;;;2.10;;
46415;SDS011;32620;51.704;7.822;2023-09-18T11:38:56;3.92;;;1.95;;
46415;SDS011;32620;51.704;7.822;2023-09-18T11:41:25;3.90;;;1.88;;
46415;SDS011;32620;51.704;7.822;2023-09-18T11:44:30;5.20;;;2.30;;
46415;SDS011;32620;51.704;7.822;2023-09-18T11:46:45;7.43;;;2.10;;
46415;SDS011;32620;51.704;7.822;2023-09-18T11:49:12;3.13;;;1.92;;
46415;SDS011;32620;51.704;7.822;2023-09-18T11:51:38;4.40;;;2.08;;
46415;SDS011;32620;51.704;7.822;2023-09-18T11:54:05;6.22;;;2.15;;
46415;SDS011;32620;51.704;7.822;2023-09-18T11:56:32;4.97;;;2.28;;
46415;SDS011;32620;51.704;7.822;2023-09-18T11:58:58;5.32;;;2.38;;
46415;SDS011;32620;51.704;7.822;2023-09-18T12:01:24;4.28;;;2.03;;
46415;SDS011;32620;51.704;7.822;2023-09-18T12:03:53;7.10;;;2.00;;
46415;SDS011;32620;51.704;7.822;2023-09-18T12:06:19;3.38;;;1.77;;
46415;SDS011;32620;51.704;7.822;2023-09-18T12:08:46;5.35;;;2.10;;
46415;SDS011;32620;51.704;7.822;2023-09-18T12:11:12;8.23;;;2.25;;
46415;SDS011;32620;51.704;7.822;2023-09-18T12:13:42;2.90;;;1.73;;
46415;SDS011;32620;51.704;7.822;2023-09-18T12:16:08;5.13;;;1.92;;
46415;SDS011;32620;51.704;7.822;2023-09-18T12:18:34;5.05;;;2.20;;
46415;SDS011;32620;51.704;7.822;2023-09-18T12:21:02;4.85;;;2.13;;
46415;SDS011;32620;51.704;7.822;2023-09-18T12:23:39;6.18;;;2.10;;
46415;SDS011;32620;51.704;7.822;2023-09-18T12:26:05;3.42;;;2.08;;
46415;SDS011;32620;51.704;7.822;2023-09-18T12:28:32;5.25;;;2.20;;
46415;SDS011;32620;51.704;7.822;2023-09-18T12:31:00;4.63;;;2.05;;
46415;SDS011;32620;51.704;7.822;2023-09-18T12:33:29;3.00;;;1.77;;
46415;SDS011;32620;51.704;7.822;2023-09-18T12:35:58;4.55;;;2.15;;
46415;SDS011;32620;51.704;7.822;2023-09-18T12:38:24;6.97;;;2.33;;
46415;SDS011;32620;51.704;7.822;2023-09-18T12:40:52;7.22;;;2.42;;
46415;SDS011;32620;51.704;7.822;2023-09-18T12:43:18;4.85;;;2.10;;
46415;SDS011;32620;51.704;7.822;2023-09-18T12:45:47;5.10;;;1.98;;
46415;SDS011;32620;51.704;7.822;2023-09-18T12:48:14;5.55;;;2.05;;
46415;SDS011;32620;51.704;7.822;2023-09-18T12:50:40;4.53;;;2.17;;
46415;SDS011;32620;51.704;7.822;2023-09-18T12:53:07;5.95;;;1.85;;
46415;SDS011;32620;51.704;7.822;2023-09-18T12:55:37;4.85;;;1.80;;
46415;SDS011;32620;51.704;7.822;2023-09-18T12:58:03;2.45;;;2.00;;
46415;SDS011;32620;51.704;7.822;2023-09-18T13:00:32;4.18;;;2.10;;
46415;SDS011;32620;51.704;7.822;2023-09-18T13:02:59;4.78;;;1.80;;
46415;SDS011;32620;51.704;7.822;2023-09-18T13:05:24;3.38;;;2.17;;
46415;SDS011;32620;51.704;7.822;2023-09-18T13:07:51;5.05;;;2.10;;
46415;SDS011;32620;51.704;7.822;2023-09-18T13:10:17;5.10;;;1.90;;
46415;SDS011;32620;51.704;7.822;2023-09-18T13:12:52;4.15;;;1.58;;
46415;SDS011;32620;51.704;7.822;2023-09-18T13:15:28;4.57;;;1.73;;
46415;SDS011;32620;51.704;7.822;2023-09-18T13:17:55;7.10;;;2.30;;
46415;SDS011;32620;51.704;7.822;2023-09-18T13:20:22;2.72;;;1.90;;
46415;SDS011;32620;51.704;7.822;2023-09-18T13:22:51;4.60;;;2.35;;
46415;SDS011;32620;51.704;7.822;2023-09-18T13:25:21;5.43;;;2.33;;
46415;SDS011;32620;51.704;7.822;2023-09-18T13:27:49;6.68;;;2.33;;
46415;SDS011;32620;51.704;7.822;2023-09-18T13:30:16;4.30;;;2.00;;
46415;SDS011;32620;51.704;7.822;2023-09-18T13:32:43;3.15;;;1.77;;
46415;SDS011;32620;51.704;7.822;2023-09-18T13:35:09;4.15;;;1.92;;
46415;SDS011;32620;51.704;7.822;2023-09-18T13:37:36;5.97;;;2.00;;
46415;SDS011;32620;51.704;7.822;2023-09-18T13:40:04;3.22;;;1.83;;
46415;SDS011;32620;51.704;7.822;2023-09-18T13:42:34;6.90;;;1.98;;
46415;SDS011;32620;51.704;7.822;2023-09-18T13:45:00;3.38;;;1.80;;
46415;SDS011;32620;51.704;7.822;2023-09-18T13:47:27;3.20;;;2.08;;
46415;SDS011;32620;51.704;7.822;2023-09-18T13:49:53;4.07;;;2.03;;
46415;SDS011;32620;51.704;7.822;2023-09-18T13:52:21;6.03;;;2.10;;
46415;SDS011;32620;51.704;7.822;2023-09-18T13:54:48;6.40;;;2.10;;
46415;SDS011;32620;51.704;7.822;2023-09-18T13:57:16;5.65;;;1.90;;
46415;SDS011;32620;51.704;7.822;2023-09-18T13:59:43;4.30;;;2.10;;
46415;SDS011;32620;51.704;7.822;2023-09-18T14:02:09;5.20;;;1.85;;
46415;SDS011;32620;51.704;7.822;2023-09-18T14:04:36;2.85;;;1.92;;
46415;SDS011;32620;51.704;7.822;2023-09-18T14:07:01;5.72;;;2.10;;
46415;SDS011;32620;51.704;7.822;2023-09-18T14:09:28;8.52;;;3.22;;
46415;SDS011;32620;51.704;7.822;2023-09-18T14:11:54;5.03;;;2.25;;
46415;SDS011;32620;51.704;7.822;2023-09-18T14:14:21;6.80;;;2.30;;
46415;SDS011;32620;51.704;7.822;2023-09-18T14:16:48;4.78;;;2.13;;
46415;SDS011;32620;51.704;7.822;2023-09-18T14:19:15;3.67;;;1.88;;
46415;SDS011;32620;51.704;7.822;2023-09-18T14:21:41;2.90;;;1.90;;
46415;SDS011;32620;51.704;7.822;2023-09-18T14:24:06;2.90;;;1.90;;
46415;SDS011;32620;51.704;7.822;2023-09-18T14:26:33;7.50;;;2.50;;
46415;SDS011;32620;51.704;7.822;2023-09-18T14:29:05;5.05;;;2.30;;
46415;SDS011;32620;51.704;7.822;2023-09-18T14:31:32;7.65;;;2.22;;
46415;SDS011;32620;51.704;7.822;2023-09-18T14:33:57;4.78;;;1.90;;
46415;SDS011;32620;51.704;7.822;2023-09-18T14:36:25;2.63;;;2.13;;
46415;SDS011;32620;51.704;7.822;2023-09-18T14:38:51;7.38;;;2.05;;
46415;SDS011;32620;51.704;7.822;2023-09-18T14:41:16;4.60;;;2.00;;